createdAt,value
2018-07-02T00:00:21.039Z,68.10
2018-07-02T00:02:50.209Z,68.60
2018-07-02T00:05:19.038Z,68.10
2018-07-02T00:07:47.833Z,68.50
2018-07-02T00:10:16.698Z,68.40
2018-07-02T00:12:45.967Z,68.40
2018-07-02T00:15:15.087Z,68.30
2018-07-02T00:17:44.224Z,69.60
2018-07-02T00:20:13.984Z,68.90
2018-07-02T00:22:43.062Z,69.10
2018-07-02T00:25:11.947Z,69.50
2018-07-02T00:27:40.999Z,68.90
2018-07-02T00:30:09.962Z,69.10
2018-07-02T00:32:38.825Z,69.30
2018-07-02T00:35:07.693Z,69.40
2018-07-02T00:37:36.524Z,69.70
2018-07-02T00:40:05.936Z,69.80
2018-07-02T00:42:34.893Z,70.10
2018-07-02T00:45:03.773Z,69.60
2018-07-02T00:47:32.703Z,69.80
2018-07-02T00:50:01.576Z,70.60
2018-07-02T00:52:30.485Z,69.90
2018-07-02T00:54:59.421Z,70.10
2018-07-02T00:57:28.300Z,70.20
2018-07-02T01:00:11.722Z,69.90
2018-07-02T01:02:40.594Z,70.00
2018-07-02T01:05:09.407Z,70.00
2018-07-02T01:07:38.277Z,70.00
2018-07-02T01:10:07.214Z,70.20
2018-07-02T01:12:36.051Z,70.40
2018-07-02T01:15:05.064Z,70.40
2018-07-02T01:17:33.838Z,70.80
2018-07-02T01:20:02.775Z,70.40
2018-07-02T01:22:31.652Z,70.40
2018-07-02T01:25:00.655Z,70.60
2018-07-02T01:27:34.157Z,70.80
2018-07-02T01:30:04.158Z,71.10
2018-07-02T01:32:32.940Z,70.80
2018-07-02T01:35:02.657Z,71.20
2018-07-02T01:40:00.350Z,71.60
2018-07-02T01:42:29.175Z,71.50
2018-07-02T01:44:57.981Z,71.60
2018-07-02T01:47:26.805Z,71.80
2018-07-02T01:49:55.715Z,71.30
2018-07-02T01:52:24.603Z,71.50
2018-07-02T01:54:53.511Z,72.50
2018-07-02T01:57:22.306Z,71.60
2018-07-02T01:59:51.166Z,72.00
2018-07-02T02:02:20.072Z,71.70
2018-07-02T02:04:49.160Z,72.80
2018-07-02T02:07:18.111Z,71.90
2018-07-02T02:09:47.046Z,71.70
2018-07-02T02:12:16.005Z,72.80
2018-07-02T02:14:44.808Z,72.20
2018-07-02T02:17:14.365Z,72.50
2018-07-02T02:19:43.232Z,72.80
2018-07-02T02:22:12.237Z,72.70
2018-07-02T02:24:41.079Z,73.10
2018-07-02T02:27:09.921Z,73.00
2018-07-02T02:29:38.852Z,73.50
2018-07-02T02:32:07.792Z,73.80
2018-07-02T02:34:36.643Z,73.40
2018-07-02T02:37:05.482Z,73.30
2018-07-02T02:39:34.424Z,73.50
2018-07-02T02:42:03.310Z,73.80
2018-07-02T02:44:32.180Z,73.80
2018-07-02T02:47:01.046Z,73.60
2018-07-02T02:49:29.877Z,73.70
2018-07-02T02:51:58.770Z,73.60
2018-07-02T02:54:27.598Z,73.90
2018-07-02T02:56:56.571Z,74.00
2018-07-02T02:59:25.405Z,74.60
2018-07-02T03:01:54.188Z,73.90
2018-07-02T03:04:23.046Z,74.20
2018-07-02T03:06:51.861Z,74.30
2018-07-02T03:09:20.785Z,74.60
2018-07-02T03:11:49.591Z,74.50
2018-07-02T03:14:18.749Z,74.60
2018-07-02T03:16:47.656Z,74.80
2018-07-02T03:19:16.355Z,74.90
2018-07-02T03:21:45.298Z,74.80
2018-07-02T03:24:14.106Z,74.90
2018-07-02T03:26:42.940Z,75.10
2018-07-02T03:29:11.780Z,75.40
2018-07-02T03:31:40.485Z,76.00
2018-07-02T03:34:09.405Z,75.40
2018-07-02T03:36:38.275Z,75.70
2018-07-02T03:39:08.792Z,75.90
2018-07-02T03:41:37.694Z,75.80
2018-07-02T03:44:06.701Z,76.80
2018-07-02T03:46:35.847Z,76.60
2018-07-02T03:49:04.903Z,76.80
2018-07-02T03:51:33.756Z,76.50
2018-07-02T03:54:02.565Z,76.60
2018-07-02T03:56:31.516Z,76.90
2018-07-02T04:01:28.788Z,76.70
2018-07-02T04:03:57.684Z,76.90
2018-07-02T04:08:56.334Z,77.40
2018-07-02T04:11:25.170Z,77.40
2018-07-02T04:13:54.025Z,77.80
2018-07-02T04:16:23.601Z,78.00
2018-07-02T04:18:56.526Z,77.80
2018-07-02T04:21:25.315Z,78.20
2018-07-02T04:23:54.144Z,78.10
2018-07-02T04:26:22.919Z,78.30
2018-07-02T04:28:51.804Z,78.40
2018-07-02T04:31:20.713Z,78.20
2018-07-02T04:33:49.493Z,78.30
2018-07-02T04:36:18.286Z,78.30
2018-07-02T04:38:47.069Z,78.20
2018-07-02T04:41:15.812Z,78.30
2018-07-02T04:43:44.576Z,78.30
2018-07-02T04:46:13.872Z,78.70
2018-07-02T04:48:42.664Z,78.20
2018-07-02T04:51:11.442Z,78.50
2018-07-02T04:53:40.461Z,78.00
2018-07-02T04:56:09.350Z,78.20
2018-07-02T04:58:38.200Z,77.90
2018-07-02T05:01:07.867Z,77.80
2018-07-02T05:03:36.629Z,77.70
2018-07-02T05:06:05.937Z,78.00
2018-07-02T05:08:34.786Z,78.50
2018-07-02T05:11:03.785Z,77.60
2018-07-02T05:16:01.107Z,77.20
2018-07-02T05:18:29.924Z,77.40
2018-07-02T05:20:59.133Z,77.20
2018-07-02T05:23:27.932Z,77.60
2018-07-02T05:25:56.778Z,77.50
2018-07-02T05:28:25.666Z,78.00
2018-07-02T05:33:23.064Z,78.20
2018-07-02T05:35:52.082Z,78.00
2018-07-02T05:38:20.952Z,77.90
2018-07-02T05:40:49.746Z,78.00
2018-07-02T05:43:18.510Z,78.70
2018-07-02T05:45:48.003Z,79.20
2018-07-02T05:48:17.114Z,79.30
2018-07-02T05:50:46.532Z,80.10
2018-07-02T05:53:15.536Z,78.70
2018-07-02T05:55:44.649Z,78.40
2018-07-02T05:58:13.701Z,78.80
2018-07-02T06:00:42.702Z,79.00
2018-07-02T06:03:11.796Z,79.40
2018-07-02T06:05:41.013Z,80.80
2018-07-02T06:08:21.282Z,78.60
2018-07-02T06:10:50.785Z,79.80
2018-07-02T06:13:21.176Z,78.40
2018-07-02T06:15:50.504Z,78.30
2018-07-02T06:18:19.378Z,78.50
2018-07-02T06:20:58.471Z,78.60
2018-07-02T06:23:29.572Z,78.30
2018-07-02T06:25:58.754Z,77.70
2018-07-02T06:30:57.528Z,76.30
2018-07-02T06:33:27.568Z,77.90
2018-07-02T06:35:56.742Z,74.70
2018-07-02T06:38:26.504Z,75.70
2018-07-02T06:40:55.465Z,75.50
2018-07-02T06:43:24.311Z,73.50
2018-07-02T06:45:53.161Z,74.30
2018-07-02T06:48:22.241Z,73.50
2018-07-02T06:50:51.541Z,73.50
2018-07-02T06:53:20.307Z,74.70
2018-07-02T06:55:49.384Z,71.90
2018-07-02T06:58:18.149Z,71.30
2018-07-02T07:00:47.687Z,72.50
2018-07-02T07:03:16.736Z,72.40
2018-07-02T07:05:45.743Z,70.90
2018-07-02T07:08:14.723Z,71.60
2018-07-02T07:10:43.489Z,72.10
2018-07-02T07:13:31.498Z,73.60
2018-07-02T07:16:12.387Z,70.00
2018-07-02T07:18:44.765Z,69.70
2018-07-02T07:21:13.734Z,69.00
2018-07-02T07:23:42.579Z,69.70
2018-07-02T07:26:11.428Z,69.50
2018-07-02T07:28:40.226Z,69.00
2018-07-02T07:31:09.053Z,70.50
2018-07-02T07:33:41.393Z,70.20
2018-07-02T07:36:10.442Z,69.00
2018-07-02T07:38:39.282Z,68.20
2018-07-02T07:41:08.241Z,70.00
2018-07-02T07:43:37.372Z,68.50
2018-07-02T07:46:06.497Z,69.00
2018-07-02T07:48:35.688Z,67.30
2018-07-02T07:51:04.594Z,68.10
2018-07-02T07:53:33.463Z,65.90
2018-07-02T07:56:02.327Z,65.70
2018-07-02T07:58:31.286Z,64.10
2018-07-02T08:01:00.201Z,64.90
2018-07-02T08:03:29.342Z,63.80
2018-07-02T08:05:58.243Z,65.40
2018-07-02T08:08:27.021Z,65.50
2018-07-02T08:10:55.838Z,67.00
2018-07-02T08:13:24.678Z,65.60
2018-07-02T08:15:53.848Z,65.30
2018-07-02T08:18:22.883Z,60.30
2018-07-02T08:20:51.743Z,61.50
2018-07-02T08:23:21.144Z,62.20
2018-07-02T08:25:50.926Z,62.80
2018-07-02T08:28:19.897Z,61.90
2018-07-02T08:30:49.260Z,58.70
2018-07-02T08:33:18.225Z,59.40
2018-07-02T08:35:47.186Z,59.00
2018-07-02T08:38:15.995Z,58.30
2018-07-02T08:40:45.033Z,58.10
2018-07-02T08:43:13.929Z,60.30
2018-07-02T08:45:43.096Z,58.80
2018-07-02T08:48:11.949Z,58.50
2018-07-02T08:50:40.725Z,58.70
2018-07-02T08:55:38.079Z,58.40
2018-07-02T08:58:06.847Z,59.10
2018-07-02T09:00:35.652Z,58.20
2018-07-02T09:03:05.041Z,57.90
2018-07-02T09:05:33.917Z,56.90
2018-07-02T09:08:02.678Z,58.20
2018-07-02T09:10:32.323Z,57.40
2018-07-02T09:13:01.190Z,56.00
2018-07-02T09:15:30.166Z,57.60
2018-07-02T09:18:00.104Z,56.10
2018-07-02T09:20:29.304Z,59.30
2018-07-02T09:22:58.886Z,58.10
2018-07-02T09:25:28.522Z,56.30
2018-07-02T09:27:57.386Z,56.50
2018-07-02T09:30:26.384Z,56.10
2018-07-02T09:32:55.280Z,56.30
2018-07-02T09:35:24.065Z,55.40
2018-07-02T09:37:52.797Z,55.40
2018-07-02T09:40:21.691Z,55.80
2018-07-02T09:42:51.391Z,55.80
2018-07-02T09:45:21.080Z,57.30
2018-07-02T09:47:49.965Z,55.00
2018-07-02T09:50:18.967Z,57.20
2018-07-02T09:52:47.867Z,55.80
2018-07-02T09:55:16.693Z,56.00
2018-07-02T09:57:45.515Z,56.10
2018-07-02T10:00:14.245Z,56.70
2018-07-02T10:02:43.006Z,56.40
2018-07-02T10:05:11.952Z,55.10
2018-07-02T10:07:41.335Z,56.00
2018-07-02T10:10:10.060Z,54.70
2018-07-02T10:15:07.815Z,54.80
2018-07-02T10:17:37.287Z,55.10
2018-07-02T10:20:07.620Z,54.20
2018-07-02T10:22:36.608Z,56.00
2018-07-02T10:25:05.702Z,54.10
2018-07-02T10:27:34.948Z,55.20
2018-07-02T10:30:03.847Z,53.50
2018-07-02T10:32:33.408Z,52.60
2018-07-02T10:35:03.138Z,53.60
2018-07-02T10:37:32.214Z,53.90
2018-07-02T10:40:02.402Z,54.20
2018-07-02T10:42:31.310Z,55.20
2018-07-02T10:45:00.155Z,55.30
2018-07-02T10:47:29.952Z,53.90
2018-07-02T10:49:58.998Z,53.90
2018-07-02T10:52:28.046Z,54.40
2018-07-02T10:54:56.965Z,53.90
2018-07-02T10:57:25.803Z,54.70
2018-07-02T10:59:54.541Z,54.10
2018-07-02T11:02:23.420Z,53.20
2018-07-02T11:04:52.290Z,52.20
2018-07-02T11:07:21.054Z,51.70
2018-07-02T11:09:50.588Z,52.90
2018-07-02T11:14:48.817Z,52.30
2018-07-02T11:17:18.165Z,53.00
2018-07-02T11:19:46.984Z,53.00
2018-07-02T11:22:16.788Z,51.70
2018-07-02T11:24:46.600Z,52.80
2018-07-02T11:27:15.703Z,52.00
2018-07-02T11:29:45.457Z,50.20
2018-07-02T11:32:14.265Z,52.10
2018-07-02T11:34:42.990Z,51.60
2018-07-02T11:37:13.315Z,50.10
2018-07-02T11:39:42.391Z,51.60
2018-07-02T11:42:11.266Z,52.10
2018-07-02T11:44:43.255Z,51.90
2018-07-02T11:47:12.160Z,52.00
2018-07-02T11:49:41.219Z,53.50
2018-07-02T11:52:10.067Z,51.30
2018-07-02T11:54:39.073Z,52.00
2018-07-02T11:57:08.267Z,50.60
2018-07-02T11:59:37.005Z,49.90
2018-07-02T12:02:06.243Z,51.60
2018-07-02T12:04:34.950Z,50.30
2018-07-02T12:07:03.917Z,50.20
2018-07-02T12:09:32.725Z,51.60
2018-07-02T12:12:01.819Z,50.10
2018-07-02T12:14:30.557Z,50.70
2018-07-02T12:17:35.828Z,50.80
2018-07-02T12:20:07.054Z,53.60
2018-07-02T12:22:35.992Z,50.30
2018-07-02T12:25:05.808Z,50.30
2018-07-02T12:27:38.405Z,50.80
2018-07-02T12:30:07.811Z,50.10
2018-07-02T12:32:39.046Z,50.50
2018-07-02T12:35:08.114Z,50.70
2018-07-02T12:38:21.541Z,52.00
2018-07-02T12:44:12.683Z,49.80
2018-07-02T12:48:00.204Z,49.60
2018-07-02T12:50:29.446Z,51.40
2018-07-02T12:52:58.218Z,50.00
2018-07-02T12:55:27.055Z,51.50
2018-07-02T12:57:56.150Z,49.40
2018-07-02T13:00:25.130Z,51.20
2018-07-02T13:02:54.042Z,49.50
2018-07-02T13:05:22.783Z,50.00
2018-07-02T13:07:53.871Z,50.40
2018-07-02T13:10:22.703Z,53.10
2018-07-02T13:12:51.583Z,50.90
2018-07-02T13:15:20.451Z,49.80
2018-07-02T13:17:49.828Z,49.00
2018-07-02T13:20:19.753Z,50.10
2018-07-02T13:22:49.352Z,50.30
2018-07-02T13:25:18.376Z,50.00
2018-07-02T13:30:42.756Z,49.90
2018-07-02T13:33:11.554Z,51.10
2018-07-02T13:35:40.302Z,49.50
2018-07-02T13:38:09.024Z,49.30
2018-07-02T13:40:38.379Z,50.00
2018-07-02T13:43:07.223Z,49.30
2018-07-02T13:45:36.006Z,50.90
2018-07-02T13:48:05.048Z,49.00
2018-07-02T13:50:33.989Z,50.80
2018-07-02T13:53:02.835Z,50.10
2018-07-02T13:55:31.537Z,48.80
2018-07-02T13:58:00.263Z,52.20
2018-07-02T14:00:29.094Z,49.70
2018-07-02T14:02:58.157Z,50.10
2018-07-02T14:05:26.822Z,49.50
2018-07-02T14:07:55.496Z,49.30
2018-07-02T14:10:24.181Z,51.00
2018-07-02T14:12:52.971Z,50.90
2018-07-02T14:15:21.737Z,50.90
2018-07-02T14:17:50.369Z,51.80
2018-07-02T14:20:19.020Z,52.50
2018-07-02T14:22:47.696Z,52.40
2018-07-02T14:25:16.430Z,51.10
2018-07-02T14:27:45.146Z,50.70
2018-07-02T14:30:13.944Z,50.30
2018-07-02T14:32:42.620Z,49.60
2018-07-02T14:35:11.320Z,49.50
2018-07-02T14:37:40.004Z,50.70
2018-07-02T14:40:08.774Z,50.00
2018-07-02T14:42:37.550Z,49.60
2018-07-02T14:45:06.714Z,50.40
2018-07-02T14:47:35.343Z,51.30
2018-07-02T14:50:04.491Z,51.80
2018-07-02T14:52:33.107Z,50.50
2018-07-02T14:55:01.870Z,51.50
2018-07-02T14:57:30.695Z,51.40
2018-07-02T14:59:59.494Z,51.40
2018-07-02T15:04:56.606Z,49.90
2018-07-02T15:07:25.576Z,50.70
2018-07-02T15:09:54.284Z,51.50
2018-07-02T15:12:22.970Z,51.70
2018-07-02T15:14:51.792Z,51.30
2018-07-02T15:17:20.494Z,51.90
2018-07-02T15:19:49.257Z,52.50
2018-07-02T15:22:18.966Z,51.20
2018-07-02T15:24:47.897Z,51.20
2018-07-02T15:27:16.579Z,51.10
2018-07-02T15:29:45.364Z,51.80
2018-07-02T15:32:14.207Z,52.40
2018-07-02T15:34:42.870Z,51.80
2018-07-02T15:37:11.521Z,51.60
2018-07-02T15:39:40.183Z,51.40
2018-07-02T15:44:37.295Z,51.70
2018-07-02T15:47:06.525Z,49.00
2018-07-02T15:49:35.789Z,49.30
2018-07-02T15:52:04.504Z,49.60
2018-07-02T15:54:33.109Z,48.00
2018-07-02T15:57:01.798Z,48.10
2018-07-02T15:59:30.434Z,48.10
2018-07-02T16:01:59.137Z,48.90
2018-07-02T16:04:27.854Z,48.20
2018-07-02T16:06:56.570Z,48.50
2018-07-02T16:11:53.660Z,50.40
2018-07-02T16:14:22.294Z,51.50
2018-07-02T16:16:51.003Z,52.70
2018-07-02T16:19:19.743Z,52.10
2018-07-02T16:21:48.498Z,52.00
2018-07-02T16:24:17.227Z,51.80
2018-07-02T16:26:45.889Z,52.50
2018-07-02T16:29:14.604Z,52.50
2018-07-02T16:31:43.319Z,53.20
2018-07-02T16:34:12.054Z,52.30
2018-07-02T16:36:40.760Z,52.40
2018-07-02T16:39:10.538Z,52.70
2018-07-02T16:41:39.424Z,52.30
2018-07-02T16:44:08.664Z,52.20
2018-07-02T16:46:37.404Z,53.20
2018-07-02T16:49:06.633Z,53.00
2018-07-02T16:51:35.410Z,53.80
2018-07-02T16:54:04.903Z,53.80
2018-07-02T16:56:34.520Z,53.80
2018-07-02T16:59:03.748Z,54.50
2018-07-02T17:01:32.460Z,52.70
2018-07-02T17:04:01.371Z,53.70
2018-07-02T17:06:30.815Z,53.90
2018-07-02T17:08:59.479Z,53.70
2018-07-02T17:11:28.174Z,53.30
2018-07-02T17:13:57.269Z,53.20
2018-07-02T17:16:26.023Z,53.90
2018-07-02T17:18:54.742Z,54.10
2018-07-02T17:21:23.416Z,54.10
2018-07-02T17:23:52.180Z,54.90
2018-07-02T17:26:20.813Z,53.60
2018-07-02T17:28:49.472Z,53.80
2018-07-02T17:31:18.155Z,53.70
2018-07-02T17:33:46.964Z,53.70
2018-07-02T17:36:15.671Z,54.40
2018-07-02T17:38:44.415Z,54.20
2018-07-02T17:41:13.175Z,54.90
2018-07-02T17:43:41.848Z,54.60
2018-07-02T17:46:11.705Z,54.70
2018-07-02T17:48:40.459Z,54.30
2018-07-02T17:51:09.115Z,55.00
2018-07-02T17:53:37.856Z,55.00
2018-07-02T17:56:06.596Z,56.00
2018-07-02T17:58:35.244Z,56.00
2018-07-02T18:01:04.118Z,56.50
2018-07-02T18:03:35.978Z,55.90
2018-07-02T18:06:05.110Z,56.20
2018-07-02T18:08:34.486Z,56.10
2018-07-02T18:11:03.221Z,56.30
2018-07-02T18:13:31.931Z,56.20
2018-07-02T18:16:09.033Z,56.00
2018-07-02T18:18:37.958Z,56.00
2018-07-02T18:21:06.744Z,55.90
2018-07-02T18:23:35.650Z,56.10
2018-07-02T18:26:05.281Z,56.40
2018-07-02T18:28:40.157Z,56.00
2018-07-02T18:31:09.301Z,56.50
2018-07-02T18:33:38.087Z,57.10
2018-07-02T18:36:06.872Z,57.30
2018-07-02T18:38:35.567Z,56.90
2018-07-02T18:41:04.374Z,57.10
2018-07-02T18:43:33.291Z,57.20
2018-07-02T18:46:01.937Z,57.30
2018-07-02T18:48:30.710Z,57.00
2018-07-02T18:51:00.493Z,57.10
2018-07-02T18:53:29.266Z,57.50
2018-07-02T18:55:58.041Z,57.10
2018-07-02T18:58:26.986Z,57.40
2018-07-02T19:00:58.138Z,57.10
2018-07-02T19:03:27.661Z,58.20
2018-07-02T19:05:56.550Z,57.90
2018-07-02T19:08:31.593Z,57.30
2018-07-02T19:11:08.481Z,57.20
2018-07-02T19:16:18.501Z,57.60
2018-07-02T19:18:54.661Z,57.30
2018-07-02T19:21:49.060Z,57.20
2018-07-02T19:24:47.701Z,56.80
2018-07-02T19:27:16.530Z,57.30
2018-07-02T19:32:36.286Z,58.00
2018-07-02T19:35:05.241Z,57.70
2018-07-02T19:37:34.096Z,57.60
2018-07-02T19:40:04.285Z,57.90
2018-07-02T19:42:33.091Z,57.80
2018-07-02T19:45:01.901Z,58.10
2018-07-02T19:47:30.640Z,58.10
2018-07-02T19:49:59.641Z,57.90
2018-07-02T19:52:28.554Z,58.30
2018-07-02T19:54:57.307Z,58.50
2018-07-02T19:57:26.034Z,58.60
2018-07-02T19:59:54.720Z,58.70
2018-07-02T20:02:23.535Z,58.70
2018-07-02T20:04:52.215Z,58.90
2018-07-02T20:07:20.963Z,58.90
2018-07-02T20:09:49.617Z,59.10
2018-07-02T20:12:18.753Z,59.30
2018-07-02T20:14:47.482Z,59.30
2018-07-02T20:17:16.134Z,59.70
2018-07-02T20:19:44.948Z,58.80
2018-07-02T20:22:13.714Z,59.50
2018-07-02T20:24:42.542Z,58.90
2018-07-02T20:27:11.370Z,59.40
2018-07-02T20:29:40.266Z,59.00
2018-07-02T20:32:09.681Z,60.00
2018-07-02T20:34:39.666Z,59.10
2018-07-02T20:37:09.221Z,59.40
2018-07-02T20:46:10.704Z,59.70
2018-07-02T20:48:39.769Z,59.70
2018-07-02T20:53:37.094Z,59.90
2018-07-02T20:56:06.003Z,59.80
2018-07-02T20:58:34.747Z,59.50
2018-07-02T21:01:03.526Z,59.70
2018-07-02T21:03:32.329Z,59.50
2018-07-02T21:06:02.779Z,59.40
2018-07-02T21:08:31.633Z,59.60
2018-07-02T21:11:00.473Z,59.60
2018-07-02T21:13:29.593Z,59.70
2018-07-02T21:15:58.669Z,59.70
2018-07-02T21:18:35.635Z,59.80
2018-07-02T21:21:12.657Z,59.40
2018-07-02T21:23:41.503Z,59.20
2018-07-02T21:26:10.319Z,59.60
2018-07-02T21:28:39.102Z,60.20
2018-07-02T21:31:08.020Z,59.40
2018-07-02T21:33:36.814Z,60.40
2018-07-02T21:36:05.963Z,59.70
2018-07-02T21:38:34.711Z,59.50
2018-07-02T21:41:03.544Z,59.70
2018-07-02T21:43:32.315Z,59.40
2018-07-02T21:46:01.689Z,59.80
2018-07-02T21:48:30.576Z,60.00
2018-07-02T21:50:59.390Z,59.90
2018-07-02T21:53:28.244Z,60.10
2018-07-02T21:55:57.103Z,59.70
2018-07-02T22:00:54.261Z,59.80
2018-07-02T22:03:23.071Z,60.10
2018-07-02T22:05:51.978Z,60.50
2018-07-02T22:08:20.849Z,60.70
2018-07-02T22:10:49.716Z,61.40
2018-07-02T22:13:18.498Z,63.10
2018-07-02T22:15:48.161Z,65.30
2018-07-02T22:18:17.016Z,67.50
2018-07-02T22:20:47.329Z,69.20
2018-07-02T22:23:16.161Z,71.10
2018-07-02T22:25:44.966Z,72.30
2018-07-02T22:28:13.788Z,73.00
2018-07-02T22:30:42.536Z,74.00
2018-07-02T22:33:11.336Z,75.00
2018-07-02T22:35:40.049Z,75.60
2018-07-02T22:38:08.813Z,76.00
2018-07-02T22:40:37.633Z,76.80
2018-07-02T22:43:06.439Z,77.10
2018-07-02T22:45:35.164Z,77.30
2018-07-02T22:48:03.913Z,78.00
2018-07-02T22:50:32.653Z,78.50
2018-07-02T22:53:01.403Z,79.00
2018-07-02T22:55:30.335Z,79.20
2018-07-02T22:57:59.131Z,79.90
2018-07-02T23:00:27.902Z,80.20
2018-07-02T23:02:56.607Z,80.50
2018-07-02T23:05:25.381Z,80.80
2018-07-02T23:07:54.212Z,80.90
2018-07-02T23:10:22.968Z,81.00
2018-07-02T23:12:51.740Z,81.20
2018-07-02T23:15:20.482Z,81.50
2018-07-02T23:17:49.205Z,82.10
2018-07-02T23:20:17.950Z,82.10
2018-07-02T23:22:57.422Z,82.40
2018-07-02T23:27:55.562Z,82.90
2018-07-02T23:30:24.270Z,83.00
2018-07-02T23:32:53.299Z,83.00
2018-07-02T23:35:22.243Z,83.10
2018-07-02T23:37:52.121Z,83.30
2018-07-02T23:40:23.133Z,83.30
2018-07-02T23:42:53.269Z,83.50
2018-07-02T23:45:22.995Z,83.60
2018-07-02T23:47:51.738Z,83.70
2018-07-02T23:50:20.531Z,83.70
2018-07-02T23:52:49.304Z,83.40
2018-07-02T23:55:18.087Z,83.50
2018-07-02T23:57:46.774Z,83.80
